sensor_id;sensor_type;location;lat;lon;timestamp;P1;durP1;ratioP1;P2;durP2;ratioP2
75589;SDS011;64169;47.240;11.312;2023-08-06T00:01:24;4.15;;;1.20;;
75589;SDS011;64169;47.240;11.312;2023-08-06T00:03:50;4.65;;;1.50;;
75589;SDS011;64169;47.240;11.312;2023-08-06T00:06:16;5.32;;;2.00;;
75589;SDS011;64169;47.240;11.312;2023-08-06T00:08:41;6.95;;;2.72;;
75589;SDS011;64169;47.240;11.312;2023-08-06T00:11:07;6.35;;;2.63;;
75589;SDS011;64169;47.240;11.312;2023-08-06T00:13:32;6.30;;;2.45;;
75589;SDS011;64169;47.240;11.312;2023-08-06T00:16:19;6.40;;;2.55;;
75589;SDS011;64169;47.240;11.312;2023-08-06T00:18:43;8.15;;;2.50;;
75589;SDS011;64169;47.240;11.312;2023-08-06T00:21:08;6.13;;;2.30;;
75589;SDS011;64169;47.240;11.312;2023-08-06T00:23:37;6.18;;;2.30;;
75589;SDS011;64169;47.240;11.312;2023-08-06T00:26:02;6.60;;;2.08;;
75589;SDS011;64169;47.240;11.312;2023-08-06T00:28:28;4.75;;;1.48;;
75589;SDS011;64169;47.240;11.312;2023-08-06T00:30:53;5.07;;;1.58;;
75589;SDS011;64169;47.240;11.312;2023-08-06T00:33:23;5.30;;;1.95;;
75589;SDS011;64169;47.240;11.312;2023-08-06T00:35:48;6.28;;;2.17;;
75589;SDS011;64169;47.240;11.312;2023-08-06T00:38:14;6.03;;;2.40;;
75589;SDS011;64169;47.240;11.312;2023-08-06T00:40:39;5.82;;;2.05;;
75589;SDS011;64169;47.240;11.312;2023-08-06T00:43:05;4.70;;;1.42;;
75589;SDS011;64169;47.240;11.312;2023-08-06T00:45:30;5.32;;;1.40;;
75589;SDS011;64169;47.240;11.312;2023-08-06T00:47:59;3.95;;;1.25;;
75589;SDS011;64169;47.240;11.312;2023-08-06T00:50:26;4.00;;;1.48;;
75589;SDS011;64169;47.240;11.312;2023-08-06T00:52:51;4.90;;;1.70;;
75589;SDS011;64169;47.240;11.312;2023-08-06T00:55:17;5.65;;;1.92;;
75589;SDS011;64169;47.240;11.312;2023-08-06T00:57:43;4.75;;;1.58;;
75589;SDS011;64169;47.240;11.312;2023-08-06T01:00:08;3.92;;;1.38;;
75589;SDS011;64169;47.240;11.312;2023-08-06T01:02:34;4.35;;;1.60;;
75589;SDS011;64169;47.240;11.312;2023-08-06T01:05:00;5.10;;;1.63;;
75589;SDS011;64169;47.240;11.312;2023-08-06T01:12:34;5.07;;;1.45;;
75589;SDS011;64169;47.240;11.312;2023-08-06T01:15:28;4.13;;;1.40;;
75589;SDS011;64169;47.240;11.312;2023-08-06T01:17:54;4.85;;;1.30;;
75589;SDS011;64169;47.240;11.312;2023-08-06T01:20:19;4.63;;;1.60;;
75589;SDS011;64169;47.240;11.312;2023-08-06T01:22:45;3.58;;;1.27;;
75589;SDS011;64169;47.240;11.312;2023-08-06T01:25:10;9.07;;;1.65;;
75589;SDS011;64169;47.240;11.312;2023-08-06T01:32:38;5.68;;;1.23;;
75589;SDS011;64169;47.240;11.312;2023-08-06T01:35:04;4.53;;;1.30;;
75589;SDS011;64169;47.240;11.312;2023-08-06T01:37:31;4.43;;;1.50;;
75589;SDS011;64169;47.240;11.312;2023-08-06T01:39:57;3.40;;;1.10;;
75589;SDS011;64169;47.240;11.312;2023-08-06T01:42:22;3.40;;;1.10;;
75589;SDS011;64169;47.240;11.312;2023-08-06T01:44:47;4.18;;;1.42;;
75589;SDS011;64169;47.240;11.312;2023-08-06T01:47:13;5.15;;;1.50;;
75589;SDS011;64169;47.240;11.312;2023-08-06T01:49:38;3.85;;;1.25;;
75589;SDS011;64169;47.240;11.312;2023-08-06T01:52:04;4.00;;;1.20;;
75589;SDS011;64169;47.240;11.312;2023-08-06T01:54:30;4.45;;;1.50;;
75589;SDS011;64169;47.240;11.312;2023-08-06T01:56:55;4.03;;;1.27;;
75589;SDS011;64169;47.240;11.312;2023-08-06T01:59:20;4.07;;;1.20;;
75589;SDS011;64169;47.240;11.312;2023-08-06T02:01:46;4.20;;;1.30;;
75589;SDS011;64169;47.240;11.312;2023-08-06T02:04:11;3.75;;;1.38;;
75589;SDS011;64169;47.240;11.312;2023-08-06T02:06:37;5.72;;;1.30;;
75589;SDS011;64169;47.240;11.312;2023-08-06T02:09:02;4.25;;;1.50;;
75589;SDS011;64169;47.240;11.312;2023-08-06T02:11:27;4.05;;;1.58;;
75589;SDS011;64169;47.240;11.312;2023-08-06T02:13:53;3.88;;;1.27;;
75589;SDS011;64169;47.240;11.312;2023-08-06T02:16:19;3.47;;;1.15;;
75589;SDS011;64169;47.240;11.312;2023-08-06T02:18:44;3.78;;;1.23;;
75589;SDS011;64169;47.240;11.312;2023-08-06T02:21:10;5.03;;;1.60;;
75589;SDS011;64169;47.240;11.312;2023-08-06T02:23:35;3.95;;;1.40;;
75589;SDS011;64169;47.240;11.312;2023-08-06T02:26:01;3.95;;;1.10;;
75589;SDS011;64169;47.240;11.312;2023-08-06T02:28:28;4.03;;;1.35;;
75589;SDS011;64169;47.240;11.312;2023-08-06T02:30:54;6.93;;;1.48;;
75589;SDS011;64169;47.240;11.312;2023-08-06T02:33:19;4.93;;;1.60;;
75589;SDS011;64169;47.240;11.312;2023-08-06T02:35:45;3.78;;;1.10;;
75589;SDS011;64169;47.240;11.312;2023-08-06T02:38:10;4.32;;;1.30;;
75589;SDS011;64169;47.240;11.312;2023-08-06T02:40:36;3.15;;;1.20;;
75589;SDS011;64169;47.240;11.312;2023-08-06T02:43:01;4.15;;;1.38;;
75589;SDS011;64169;47.240;11.312;2023-08-06T02:45:27;4.30;;;1.30;;
75589;SDS011;64169;47.240;11.312;2023-08-06T02:47:52;4.38;;;1.30;;
75589;SDS011;64169;47.240;11.312;2023-08-06T02:50:17;3.25;;;1.20;;
75589;SDS011;64169;47.240;11.312;2023-08-06T02:52:43;4.57;;;1.50;;
75589;SDS011;64169;47.240;11.312;2023-08-06T02:55:08;6.53;;;1.42;;
75589;SDS011;64169;47.240;11.312;2023-08-06T02:57:34;6.90;;;1.38;;
75589;SDS011;64169;47.240;11.312;2023-08-06T02:59:59;3.85;;;1.30;;
75589;SDS011;64169;47.240;11.312;2023-08-06T03:02:24;4.43;;;1.52;;
75589;SDS011;64169;47.240;11.312;2023-08-06T03:04:50;5.20;;;1.38;;
75589;SDS011;64169;47.240;11.312;2023-08-06T03:07:16;6.40;;;1.38;;
75589;SDS011;64169;47.240;11.312;2023-08-06T03:09:41;3.63;;;1.30;;
75589;SDS011;64169;47.240;11.312;2023-08-06T03:12:07;5.25;;;1.20;;
75589;SDS011;64169;47.240;11.312;2023-08-06T03:14:32;4.78;;;1.30;;
75589;SDS011;64169;47.240;11.312;2023-08-06T03:16:58;5.03;;;1.60;;
75589;SDS011;64169;47.240;11.312;2023-08-06T03:19:23;4.63;;;1.40;;
75589;SDS011;64169;47.240;11.312;2023-08-06T03:21:49;4.25;;;1.38;;
75589;SDS011;64169;47.240;11.312;2023-08-06T03:24:14;4.35;;;1.30;;
75589;SDS011;64169;47.240;11.312;2023-08-06T03:26:39;6.43;;;1.63;;
75589;SDS011;64169;47.240;11.312;2023-08-06T03:29:05;5.03;;;1.20;;
75589;SDS011;64169;47.240;11.312;2023-08-06T03:31:30;4.05;;;1.42;;
75589;SDS011;64169;47.240;11.312;2023-08-06T03:33:56;4.40;;;1.60;;
75589;SDS011;64169;47.240;11.312;2023-08-06T03:36:21;4.68;;;1.20;;
75589;SDS011;64169;47.240;11.312;2023-08-06T03:38:46;4.25;;;1.58;;
75589;SDS011;64169;47.240;11.312;2023-08-06T03:41:12;4.03;;;1.30;;
75589;SDS011;64169;47.240;11.312;2023-08-06T03:43:37;5.43;;;1.50;;
75589;SDS011;64169;47.240;11.312;2023-08-06T03:46:03;3.40;;;1.15;;
75589;SDS011;64169;47.240;11.312;2023-08-06T03:48:28;3.38;;;1.05;;
75589;SDS011;64169;47.240;11.312;2023-08-06T03:50:53;2.90;;;0.90;;
75589;SDS011;64169;47.240;11.312;2023-08-06T03:53:19;3.38;;;1.00;;
75589;SDS011;64169;47.240;11.312;2023-08-06T03:55:44;2.70;;;0.90;;
75589;SDS011;64169;47.240;11.312;2023-08-06T03:58:10;2.95;;;0.90;;
75589;SDS011;64169;47.240;11.312;2023-08-06T04:00:35;2.33;;;0.77;;
75589;SDS011;64169;47.240;11.312;2023-08-06T04:03:01;2.58;;;0.80;;
75589;SDS011;64169;47.240;11.312;2023-08-06T04:05:26;3.53;;;1.00;;
75589;SDS011;64169;47.240;11.312;2023-08-06T04:07:51;4.18;;;1.10;;
75589;SDS011;64169;47.240;11.312;2023-08-06T04:10:17;3.60;;;1.17;;
75589;SDS011;64169;47.240;11.312;2023-08-06T04:12:42;3.22;;;0.90;;
75589;SDS011;64169;47.240;11.312;2023-08-06T04:15:08;3.70;;;0.93;;
75589;SDS011;64169;47.240;11.312;2023-08-06T04:17:33;2.75;;;1.00;;
75589;SDS011;64169;47.240;11.312;2023-08-06T04:19:59;3.67;;;1.23;;
75589;SDS011;64169;47.240;11.312;2023-08-06T04:22:24;3.75;;;1.20;;
75589;SDS011;64169;47.240;11.312;2023-08-06T04:24:50;2.85;;;1.00;;
75589;SDS011;64169;47.240;11.312;2023-08-06T04:27:15;4.97;;;1.00;;
75589;SDS011;64169;47.240;11.312;2023-08-06T04:29:41;3.70;;;1.15;;
75589;SDS011;64169;47.240;11.312;2023-08-06T04:32:08;4.25;;;1.23;;
75589;SDS011;64169;47.240;11.312;2023-08-06T04:34:34;4.13;;;1.20;;
75589;SDS011;64169;47.240;11.312;2023-08-06T04:37:00;3.67;;;1.10;;
75589;SDS011;64169;47.240;11.312;2023-08-06T04:39:26;4.97;;;1.10;;
75589;SDS011;64169;47.240;11.312;2023-08-06T04:41:52;3.13;;;1.13;;
75589;SDS011;64169;47.240;11.312;2023-08-06T04:44:17;7.10;;;1.40;;
75589;SDS011;64169;47.240;11.312;2023-08-06T04:46:43;4.10;;;1.25;;
75589;SDS011;64169;47.240;11.312;2023-08-06T04:49:08;4.72;;;1.40;;
75589;SDS011;64169;47.240;11.312;2023-08-06T04:51:34;3.75;;;1.27;;
75589;SDS011;64169;47.240;11.312;2023-08-06T04:53:59;4.13;;;1.20;;
75589;SDS011;64169;47.240;11.312;2023-08-06T04:56:24;5.13;;;1.30;;
75589;SDS011;64169;47.240;11.312;2023-08-06T04:58:50;5.20;;;1.33;;
75589;SDS011;64169;47.240;11.312;2023-08-06T05:01:15;4.55;;;1.60;;
75589;SDS011;64169;47.240;11.312;2023-08-06T05:03:41;5.35;;;1.60;;
75589;SDS011;64169;47.240;11.312;2023-08-06T05:06:06;4.95;;;1.58;;
75589;SDS011;64169;47.240;11.312;2023-08-06T05:08:32;5.80;;;1.70;;
75589;SDS011;64169;47.240;11.312;2023-08-06T05:10:57;4.40;;;1.48;;
75589;SDS011;64169;47.240;11.312;2023-08-06T05:13:22;6.05;;;2.13;;
75589;SDS011;64169;47.240;11.312;2023-08-06T05:15:48;7.90;;;2.65;;
75589;SDS011;64169;47.240;11.312;2023-08-06T05:18:13;6.68;;;2.30;;
75589;SDS011;64169;47.240;11.312;2023-08-06T05:20:40;5.57;;;1.88;;
75589;SDS011;64169;47.240;11.312;2023-08-06T05:23:06;4.18;;;1.40;;
75589;SDS011;64169;47.240;11.312;2023-08-06T05:25:31;3.97;;;1.38;;
75589;SDS011;64169;47.240;11.312;2023-08-06T05:27:56;4.57;;;1.40;;
75589;SDS011;64169;47.240;11.312;2023-08-06T05:30:22;3.70;;;1.33;;
75589;SDS011;64169;47.240;11.312;2023-08-06T05:32:47;3.45;;;1.25;;
75589;SDS011;64169;47.240;11.312;2023-08-06T05:35:13;4.40;;;1.40;;
75589;SDS011;64169;47.240;11.312;2023-08-06T05:37:38;4.75;;;1.30;;
75589;SDS011;64169;47.240;11.312;2023-08-06T05:40:04;4.70;;;1.27;;
75589;SDS011;64169;47.240;11.312;2023-08-06T05:42:30;4.95;;;1.30;;
75589;SDS011;64169;47.240;11.312;2023-08-06T05:44:56;3.90;;;1.40;;
75589;SDS011;64169;47.240;11.312;2023-08-06T05:47:21;4.22;;;1.48;;
75589;SDS011;64169;47.240;11.312;2023-08-06T05:49:47;3.85;;;1.10;;
75589;SDS011;64169;47.240;11.312;2023-08-06T05:52:12;3.45;;;1.05;;
75589;SDS011;64169;47.240;11.312;2023-08-06T05:54:37;3.72;;;1.10;;
75589;SDS011;64169;47.240;11.312;2023-08-06T05:57:03;2.50;;;0.98;;
75589;SDS011;64169;47.240;11.312;2023-08-06T05:59:29;3.08;;;1.08;;
75589;SDS011;64169;47.240;11.312;2023-08-06T06:01:54;3.65;;;1.10;;
75589;SDS011;64169;47.240;11.312;2023-08-06T06:04:20;3.85;;;1.20;;
75589;SDS011;64169;47.240;11.312;2023-08-06T06:06:45;4.18;;;1.00;;
75589;SDS011;64169;47.240;11.312;2023-08-06T06:09:11;2.70;;;1.00;;
75589;SDS011;64169;47.240;11.312;2023-08-06T06:11:36;1.77;;;0.70;;
75589;SDS011;64169;47.240;11.312;2023-08-06T06:14:01;4.28;;;1.30;;
75589;SDS011;64169;47.240;11.312;2023-08-06T06:16:27;4.10;;;0.90;;
75589;SDS011;64169;47.240;11.312;2023-08-06T06:18:53;4.38;;;1.58;;
75589;SDS011;64169;47.240;11.312;2023-08-06T06:21:19;2.97;;;0.98;;
75589;SDS011;64169;47.240;11.312;2023-08-06T06:23:45;3.10;;;0.98;;
75589;SDS011;64169;47.240;11.312;2023-08-06T06:26:10;4.88;;;1.02;;
75589;SDS011;64169;47.240;11.312;2023-08-06T06:28:36;3.92;;;1.00;;
75589;SDS011;64169;47.240;11.312;2023-08-06T06:31:01;2.85;;;0.82;;
75589;SDS011;64169;47.240;11.312;2023-08-06T06:33:27;3.13;;;1.00;;
75589;SDS011;64169;47.240;11.312;2023-08-06T06:35:52;2.95;;;1.08;;
75589;SDS011;64169;47.240;11.312;2023-08-06T06:38:18;3.60;;;1.40;;
75589;SDS011;64169;47.240;11.312;2023-08-06T06:40:43;4.07;;;1.08;;
75589;SDS011;64169;47.240;11.312;2023-08-06T06:43:09;3.25;;;1.08;;
75589;SDS011;64169;47.240;11.312;2023-08-06T06:45:34;6.40;;;1.30;;
75589;SDS011;64169;47.240;11.312;2023-08-06T06:47:59;3.70;;;1.13;;
75589;SDS011;64169;47.240;11.312;2023-08-06T06:50:25;3.83;;;1.20;;
75589;SDS011;64169;47.240;11.312;2023-08-06T06:52:51;4.22;;;1.23;;
75589;SDS011;64169;47.240;11.312;2023-08-06T06:55:16;6.95;;;1.30;;
75589;SDS011;64169;47.240;11.312;2023-08-06T06:57:42;4.15;;;1.40;;
75589;SDS011;64169;47.240;11.312;2023-08-06T07:00:07;3.38;;;1.10;;
75589;SDS011;64169;47.240;11.312;2023-08-06T07:02:33;3.78;;;1.23;;
75589;SDS011;64169;47.240;11.312;2023-08-06T07:04:58;4.18;;;1.20;;
75589;SDS011;64169;47.240;11.312;2023-08-06T07:07:24;4.00;;;1.23;;
75589;SDS011;64169;47.240;11.312;2023-08-06T07:09:49;5.57;;;1.27;;
75589;SDS011;64169;47.240;11.312;2023-08-06T07:12:15;3.45;;;1.08;;
75589;SDS011;64169;47.240;11.312;2023-08-06T07:14:40;3.40;;;1.10;;
75589;SDS011;64169;47.240;11.312;2023-08-06T07:17:06;3.47;;;1.02;;
75589;SDS011;64169;47.240;11.312;2023-08-06T07:19:31;2.67;;;0.90;;
75589;SDS011;64169;47.240;11.312;2023-08-06T07:21:57;2.83;;;1.00;;
75589;SDS011;64169;47.240;11.312;2023-08-06T07:24:22;3.90;;;1.17;;
75589;SDS011;64169;47.240;11.312;2023-08-06T07:26:48;2.85;;;0.90;;
75589;SDS011;64169;47.240;11.312;2023-08-06T07:29:13;3.80;;;1.17;;
75589;SDS011;64169;47.240;11.312;2023-08-06T07:31:44;3.88;;;0.93;;
75589;SDS011;64169;47.240;11.312;2023-08-06T07:34:10;2.72;;;0.80;;
75589;SDS011;64169;47.240;11.312;2023-08-06T07:36:35;3.25;;;0.82;;
75589;SDS011;64169;47.240;11.312;2023-08-06T07:39:00;4.78;;;1.10;;
75589;SDS011;64169;47.240;11.312;2023-08-06T07:41:26;3.30;;;1.10;;
75589;SDS011;64169;47.240;11.312;2023-08-06T07:43:51;3.40;;;1.20;;
75589;SDS011;64169;47.240;11.312;2023-08-06T07:46:17;1.85;;;0.80;;
75589;SDS011;64169;47.240;11.312;2023-08-06T07:48:42;2.83;;;1.00;;
75589;SDS011;64169;47.240;11.312;2023-08-06T07:51:08;4.07;;;1.10;;
75589;SDS011;64169;47.240;11.312;2023-08-06T07:53:33;3.50;;;0.93;;
75589;SDS011;64169;47.240;11.312;2023-08-06T07:55:58;3.20;;;1.02;;
75589;SDS011;64169;47.240;11.312;2023-08-06T07:58:26;2.90;;;0.82;;
75589;SDS011;64169;47.240;11.312;2023-08-06T08:00:52;4.47;;;1.25;;
75589;SDS011;64169;47.240;11.312;2023-08-06T08:03:17;3.85;;;1.15;;
75589;SDS011;64169;47.240;11.312;2023-08-06T08:05:43;3.10;;;1.00;;
75589;SDS011;64169;47.240;11.312;2023-08-06T08:08:09;3.67;;;1.02;;
75589;SDS011;64169;47.240;11.312;2023-08-06T08:10:34;3.20;;;1.00;;
75589;SDS011;64169;47.240;11.312;2023-08-06T08:13:00;3.00;;;0.95;;
75589;SDS011;64169;47.240;11.312;2023-08-06T08:15:28;3.65;;;1.00;;
75589;SDS011;64169;47.240;11.312;2023-08-06T08:17:53;2.90;;;1.13;;
75589;SDS011;64169;47.240;11.312;2023-08-06T08:20:19;4.15;;;1.30;;
75589;SDS011;64169;47.240;11.312;2023-08-06T08:22:45;8.63;;;1.55;;
75589;SDS011;64169;47.240;11.312;2023-08-06T08:25:10;2.97;;;1.00;;
75589;SDS011;64169;47.240;11.312;2023-08-06T08:27:36;3.70;;;1.00;;
75589;SDS011;64169;47.240;11.312;2023-08-06T08:30:01;3.20;;;1.13;;
75589;SDS011;64169;47.240;11.312;2023-08-06T08:32:27;3.85;;;1.05;;
75589;SDS011;64169;47.240;11.312;2023-08-06T08:34:52;4.93;;;1.13;;
75589;SDS011;64169;47.240;11.312;2023-08-06T08:37:18;4.05;;;1.65;;
75589;SDS011;64169;47.240;11.312;2023-08-06T08:39:44;2.58;;;0.85;;
75589;SDS011;64169;47.240;11.312;2023-08-06T08:42:09;2.97;;;0.98;;
75589;SDS011;64169;47.240;11.312;2023-08-06T08:44:35;3.83;;;1.10;;
75589;SDS011;64169;47.240;11.312;2023-08-06T08:47:04;3.70;;;1.20;;
75589;SDS011;64169;47.240;11.312;2023-08-06T08:49:31;3.70;;;1.23;;
75589;SDS011;64169;47.240;11.312;2023-08-06T08:51:57;4.15;;;1.40;;
75589;SDS011;64169;47.240;11.312;2023-08-06T08:54:24;3.70;;;1.20;;
75589;SDS011;64169;47.240;11.312;2023-08-06T08:56:50;3.35;;;1.10;;
75589;SDS011;64169;47.240;11.312;2023-08-06T08:59:15;4.00;;;1.20;;
75589;SDS011;64169;47.240;11.312;2023-08-06T09:01:41;3.92;;;1.08;;
75589;SDS011;64169;47.240;11.312;2023-08-06T09:04:07;4.43;;;1.20;;
75589;SDS011;64169;47.240;11.312;2023-08-06T09:06:33;4.35;;;1.10;;
75589;SDS011;64169;47.240;11.312;2023-08-06T09:09:06;3.42;;;1.10;;
75589;SDS011;64169;47.240;11.312;2023-08-06T09:11:39;3.00;;;1.05;;
75589;SDS011;64169;47.240;11.312;2023-08-06T09:14:09;3.17;;;0.80;;
75589;SDS011;64169;47.240;11.312;2023-08-06T09:16:35;3.13;;;1.10;;
75589;SDS011;64169;47.240;11.312;2023-08-06T09:19:06;2.83;;;0.82;;
75589;SDS011;64169;47.240;11.312;2023-08-06T09:21:32;1.73;;;0.77;;
75589;SDS011;64169;47.240;11.312;2023-08-06T09:23:58;2.63;;;0.80;;
75589;SDS011;64169;47.240;11.312;2023-08-06T09:26:24;2.50;;;0.80;;
75589;SDS011;64169;47.240;11.312;2023-08-06T09:28:50;2.97;;;0.75;;
75589;SDS011;64169;47.240;11.312;2023-08-06T09:31:17;2.53;;;0.90;;
75589;SDS011;64169;47.240;11.312;2023-08-06T09:33:43;3.10;;;0.80;;
75589;SDS011;64169;47.240;11.312;2023-08-06T09:36:10;2.10;;;0.70;;
75589;SDS011;64169;47.240;11.312;2023-08-06T09:38:39;1.80;;;0.60;;
75589;SDS011;64169;47.240;11.312;2023-08-06T09:41:05;2.10;;;0.68;;
75589;SDS011;64169;47.240;11.312;2023-08-06T09:43:39;2.55;;;0.80;;
75589;SDS011;64169;47.240;11.312;2023-08-06T09:46:15;2.38;;;0.80;;
75589;SDS011;64169;47.240;11.312;2023-08-06T09:48:44;1.83;;;0.55;;
75589;SDS011;64169;47.240;11.312;2023-08-06T09:51:10;1.27;;;0.50;;
75589;SDS011;64169;47.240;11.312;2023-08-06T09:53:36;1.15;;;0.35;;
75589;SDS011;64169;47.240;11.312;2023-08-06T09:56:02;1.52;;;0.40;;
75589;SDS011;64169;47.240;11.312;2023-08-06T09:58:30;2.40;;;0.47;;
75589;SDS011;64169;47.240;11.312;2023-08-06T10:00:56;1.65;;;0.45;;
75589;SDS011;64169;47.240;11.312;2023-08-06T10:03:21;1.08;;;0.35;;
75589;SDS011;64169;47.240;11.312;2023-08-06T10:05:47;1.80;;;0.52;;
75589;SDS011;64169;47.240;11.312;2023-08-06T10:08:13;1.67;;;0.50;;
75589;SDS011;64169;47.240;11.312;2023-08-06T10:10:38;4.50;;;0.60;;
75589;SDS011;64169;47.240;11.312;2023-08-06T10:13:04;0.88;;;0.25;;
75589;SDS011;64169;47.240;11.312;2023-08-06T10:15:31;1.45;;;0.45;;
75589;SDS011;64169;47.240;11.312;2023-08-06T10:17:57;2.03;;;0.57;;
75589;SDS011;64169;47.240;11.312;2023-08-06T10:20:23;1.50;;;0.50;;
75589;SDS011;64169;47.240;11.312;2023-08-06T10:22:59;0.68;;;0.43;;
75589;SDS011;64169;47.240;11.312;2023-08-06T10:25:25;1.70;;;0.60;;
75589;SDS011;64169;47.240;11.312;2023-08-06T10:32:55;1.30;;;0.40;;
75589;SDS011;64169;47.240;11.312;2023-08-06T10:38:20;4.72;;;1.17;;
75589;SDS011;64169;47.240;11.312;2023-08-06T10:43:25;2.95;;;0.55;;
75589;SDS011;64169;47.240;11.312;2023-08-06T10:46:04;1.63;;;0.55;;
75589;SDS011;64169;47.240;11.312;2023-08-06T10:51:06;1.65;;;0.47;;
75589;SDS011;64169;47.240;11.312;2023-08-06T10:53:33;3.28;;;0.60;;
75589;SDS011;64169;47.240;11.312;2023-08-06T10:55:58;1.48;;;0.50;;
75589;SDS011;64169;47.240;11.312;2023-08-06T10:58:23;2.47;;;0.63;;
75589;SDS011;64169;47.240;11.312;2023-08-06T11:00:49;2.00;;;0.45;;
75589;SDS011;64169;47.240;11.312;2023-08-06T11:03:14;1.55;;;0.47;;
75589;SDS011;64169;47.240;11.312;2023-08-06T11:05:40;1.98;;;0.60;;
75589;SDS011;64169;47.240;11.312;2023-08-06T11:08:05;1.27;;;0.40;;
75589;SDS011;64169;47.240;11.312;2023-08-06T11:10:32;1.35;;;0.40;;
75589;SDS011;64169;47.240;11.312;2023-08-06T11:13:02;1.17;;;0.40;;
75589;SDS011;64169;47.240;11.312;2023-08-06T11:15:28;2.20;;;0.70;;
75589;SDS011;64169;47.240;11.312;2023-08-06T11:17:53;1.67;;;0.45;;
75589;SDS011;64169;47.240;11.312;2023-08-06T11:20:20;0.95;;;0.22;;
75589;SDS011;64169;47.240;11.312;2023-08-06T11:22:46;3.03;;;0.55;;
75589;SDS011;64169;47.240;11.312;2023-08-06T11:25:12;2.42;;;0.52;;
75589;SDS011;64169;47.240;11.312;2023-08-06T11:27:37;1.65;;;0.52;;
75589;SDS011;64169;47.240;11.312;2023-08-06T11:30:03;1.63;;;0.30;;
75589;SDS011;64169;47.240;11.312;2023-08-06T11:32:28;0.82;;;0.28;;
75589;SDS011;64169;47.240;11.312;2023-08-06T11:34:54;0.68;;;0.15;;
75589;SDS011;64169;47.240;11.312;2023-08-06T11:37:21;0.55;;;0.28;;
75589;SDS011;64169;47.240;11.312;2023-08-06T11:39:47;0.70;;;0.22;;
75589;SDS011;64169;47.240;11.312;2023-08-06T11:42:14;0.60;;;0.10;;
75589;SDS011;64169;47.240;11.312;2023-08-06T11:44:40;0.65;;;0.30;;
75589;SDS011;64169;47.240;11.312;2023-08-06T11:47:11;0.90;;;0.30;;
75589;SDS011;64169;47.240;11.312;2023-08-06T11:49:42;0.75;;;0.20;;
75589;SDS011;64169;47.240;11.312;2023-08-06T11:52:11;0.43;;;0.20;;
75589;SDS011;64169;47.240;11.312;2023-08-06T11:55:09;0.20;;;0.00;;
75589;SDS011;64169;47.240;11.312;2023-08-06T11:57:37;1.75;;;0.30;;
75589;SDS011;64169;47.240;11.312;2023-08-06T12:00:07;0.35;;;0.20;;
75589;SDS011;64169;47.240;11.312;2023-08-06T12:02:38;0.65;;;0.10;;
75589;SDS011;64169;47.240;11.312;2023-08-06T12:05:05;0.40;;;0.10;;
75589;SDS011;64169;47.240;11.312;2023-08-06T12:07:45;0.15;;;0.13;;
75589;SDS011;64169;47.240;11.312;2023-08-06T12:10:14;0.10;;;0.10;;
75589;SDS011;64169;47.240;11.312;2023-08-06T12:12:40;0.57;;;0.20;;
75589;SDS011;64169;47.240;11.312;2023-08-06T12:15:06;0.35;;;0.17;;
75589;SDS011;64169;47.240;11.312;2023-08-06T12:17:33;0.28;;;0.10;;
75589;SDS011;64169;47.240;11.312;2023-08-06T12:19:59;0.47;;;0.17;;
75589;SDS011;64169;47.240;11.312;2023-08-06T12:22:25;0.63;;;0.20;;
75589;SDS011;64169;47.240;11.312;2023-08-06T12:24:50;0.85;;;0.30;;
75589;SDS011;64169;47.240;11.312;2023-08-06T12:27:16;0.40;;;0.10;;
75589;SDS011;64169;47.240;11.312;2023-08-06T12:29:42;0.52;;;0.22;;
75589;SDS011;64169;47.240;11.312;2023-08-06T12:32:09;1.15;;;0.20;;
75589;SDS011;64169;47.240;11.312;2023-08-06T12:34:35;1.08;;;0.20;;
75589;SDS011;64169;47.240;11.312;2023-08-06T12:37:01;1.23;;;0.10;;
75589;SDS011;64169;47.240;11.312;2023-08-06T12:39:27;1.17;;;0.20;;
75589;SDS011;64169;47.240;11.312;2023-08-06T12:41:54;1.52;;;0.30;;
75589;SDS011;64169;47.240;11.312;2023-08-06T12:44:23;0.80;;;0.20;;
75589;SDS011;64169;47.240;11.312;2023-08-06T12:46:49;0.52;;;0.20;;
75589;SDS011;64169;47.240;11.312;2023-08-06T12:49:16;0.28;;;0.10;;
75589;SDS011;64169;47.240;11.312;2023-08-06T12:51:41;1.75;;;0.20;;
75589;SDS011;64169;47.240;11.312;2023-08-06T12:54:08;0.08;;;0.03;;
75589;SDS011;64169;47.240;11.312;2023-08-06T12:56:33;0.00;;;0.00;;
75589;SDS011;64169;47.240;11.312;2023-08-06T12:58:59;0.52;;;0.10;;
75589;SDS011;64169;47.240;11.312;2023-08-06T13:01:24;2.63;;;0.22;;
75589;SDS011;64169;47.240;11.312;2023-08-06T13:03:50;0.45;;;0.13;;
75589;SDS011;64169;47.240;11.312;2023-08-06T13:06:15;0.30;;;0.17;;
75589;SDS011;64169;47.240;11.312;2023-08-06T13:08:41;0.45;;;0.22;;
75589;SDS011;64169;47.240;11.312;2023-08-06T13:11:06;0.13;;;0.10;;
75589;SDS011;64169;47.240;11.312;2023-08-06T13:13:32;0.10;;;0.10;;
75589;SDS011;64169;47.240;11.312;2023-08-06T13:15:57;0.75;;;0.15;;
75589;SDS011;64169;47.240;11.312;2023-08-06T13:18:22;0.10;;;0.10;;
75589;SDS011;64169;47.240;11.312;2023-08-06T13:20:48;0.22;;;0.10;;
75589;SDS011;64169;47.240;11.312;2023-08-06T13:23:17;0.13;;;0.13;;
75589;SDS011;64169;47.240;11.312;2023-08-06T13:25:42;0.15;;;0.15;;
75589;SDS011;64169;47.240;11.312;2023-08-06T13:28:08;0.55;;;0.13;;
75589;SDS011;64169;47.240;11.312;2023-08-06T13:30:33;0.85;;;0.10;;
75589;SDS011;64169;47.240;11.312;2023-08-06T13:33:00;0.57;;;0.10;;
75589;SDS011;64169;47.240;11.312;2023-08-06T13:35:26;0.35;;;0.15;;
75589;SDS011;64169;47.240;11.312;2023-08-06T13:37:52;0.55;;;0.20;;
75589;SDS011;64169;47.240;11.312;2023-08-06T13:40:18;0.20;;;0.20;;
75589;SDS011;64169;47.240;11.312;2023-08-06T13:42:43;1.10;;;0.05;;
75589;SDS011;64169;47.240;11.312;2023-08-06T13:45:09;0.10;;;0.10;;
75589;SDS011;64169;47.240;11.312;2023-08-06T13:47:34;0.38;;;0.08;;
75589;SDS011;64169;47.240;11.312;2023-08-06T13:50:00;0.00;;;0.00;;
75589;SDS011;64169;47.240;11.312;2023-08-06T13:52:27;0.10;;;0.10;;
75589;SDS011;64169;47.240;11.312;2023-08-06T13:54:52;0.10;;;0.10;;
75589;SDS011;64169;47.240;11.312;2023-08-06T13:57:18;0.20;;;0.03;;
75589;SDS011;64169;47.240;11.312;2023-08-06T13:59:43;0.17;;;0.10;;
75589;SDS011;64169;47.240;11.312;2023-08-06T14:02:09;0.00;;;0.00;;
75589;SDS011;64169;47.240;11.312;2023-08-06T14:04:35;0.00;;;0.00;;
75589;SDS011;64169;47.240;11.312;2023-08-06T14:07:02;1.17;;;0.10;;
75589;SDS011;64169;47.240;11.312;2023-08-06T14:09:28;0.20;;;0.00;;
75589;SDS011;64169;47.240;11.312;2023-08-06T14:11:53;4.60;;;0.20;;
75589;SDS011;64169;47.240;11.312;2023-08-06T14:14:19;0.00;;;0.00;;
75589;SDS011;64169;47.240;11.312;2023-08-06T14:16:50;0.30;;;0.10;;
75589;SDS011;64169;47.240;11.312;2023-08-06T14:19:16;0.03;;;0.03;;
75589;SDS011;64169;47.240;11.312;2023-08-06T14:21:41;0.70;;;0.22;;
75589;SDS011;64169;47.240;11.312;2023-08-06T14:24:06;0.00;;;0.00;;
75589;SDS011;64169;47.240;11.312;2023-08-06T14:26:32;1.60;;;0.10;;
75589;SDS011;64169;47.240;11.312;2023-08-06T14:28:57;0.08;;;0.08;;
75589;SDS011;64169;47.240;11.312;2023-08-06T14:31:23;0.28;;;0.00;;
75589;SDS011;64169;47.240;11.312;2023-08-06T14:33:48;0.28;;;0.05;;
75589;SDS011;64169;47.240;11.312;2023-08-06T14:36:14;0.00;;;0.00;;
75589;SDS011;64169;47.240;11.312;2023-08-06T14:38:39;0.75;;;0.43;;
75589;SDS011;64169;47.240;11.312;2023-08-06T14:41:05;0.10;;;0.10;;
75589;SDS011;64169;47.240;11.312;2023-08-06T14:43:31;0.05;;;0.00;;
75589;SDS011;64169;47.240;11.312;2023-08-06T14:45:56;0.22;;;0.10;;
75589;SDS011;64169;47.240;11.312;2023-08-06T14:48:22;0.80;;;0.00;;
75589;SDS011;64169;47.240;11.312;2023-08-06T14:50:47;0.22;;;0.10;;